EA5AFP-10 Ador ES current weather conditions

sailwx.info

Wind from 270 at 2 knots gusting 2

Air temperature 20.0° C
Dewpoint -13.8° C

Last reported at 2018-Sep-25 22:52 UTC.
Time now 2018-Sep-25 23:18 UTC

Location: N 38°55' W 000°13'.
View on Google Maps.

See reports from other nearby stations

  
Tides and Currents Weather Stations Pressure Air Temp Water Temp Dewpoint Dewpoint Depression Visibility Wind Speed Wind Dir Waves Ship Positions
date/time (UTC)wind fromknots sea level pressurealtimeterstation pressurevisibilityair tempwater tempwave heightnotes
2018-Sep-25 22:52 270 2 gusting 2 20.0
2018-Sep-25 22:39 270 0 gusting 2 20.0
2018-Sep-25 22:26 270 20.0
2018-Sep-25 22:14 270 20.0
2018-Sep-25 22:02 20.0
2018-Sep-25 21:49 20.0
2018-Sep-25 21:35 20.0
2018-Sep-25 21:21 20.0
2018-Sep-25 21:08 270 0 gusting 2 20.0
2018-Sep-25 20:56 20.0
2018-Sep-25 20:53 270 20.0
2018-Sep-25 20:44 315 1 gusting 2 20.0
2018-Sep-25 20:31 20.0
2018-Sep-25 20:27 20.0
2018-Sep-25 20:18 270 20.0
2018-Sep-25 20:06 20.0
2018-Sep-25 20:00 20.0
2018-Sep-25 19:53 20.0
2018-Sep-25 19:41 090 0 gusting 1 20.0
2018-Sep-25 19:27 20.0
2018-Sep-25 19:12 20.0
2018-Sep-25 19:06 20.0
2018-Sep-25 18:58 20.0
2018-Sep-25 18:45 045 2 gusting 5 20.0
2018-Sep-25 18:39 20.0
2018-Sep-25 18:30 20.0
2018-Sep-25 18:16 045 20.6
2018-Sep-25 18:12 090 1 gusting 2 20.6
2018-Sep-25 18:02 20.6
2018-Sep-25 17:48 090 1 gusting 2 20.6
2018-Sep-25 17:42 090 1 gusting 3 20.6
2018-Sep-25 17:35 090 20.6
2018-Sep-25 17:20 20.6
2018-Sep-25 17:15 20.6
2018-Sep-25 17:06 090 0 gusting 2 20.6
2018-Sep-25 16:52 090 0 gusting 2 20.6
2018-Sep-25 16:48 090 20.6
2018-Sep-25 16:38 045 1 gusting 3 20.6
2018-Sep-25 16:24 090 1 gusting 3 20.6
2018-Sep-25 16:11 20.6
2018-Sep-25 15:57 045 0 gusting 2 20.6
2018-Sep-25 15:54 20.6
2018-Sep-25 15:43 045 5 gusting 7 20.6
2018-Sep-25 15:30 090 4 gusting 6 20.6
2018-Sep-25 15:17 090 1 gusting 3 20.6
2018-Sep-25 15:03 045 0 gusting 3 20.6
2018-Sep-25 14:48 21.1
2018-Sep-25 14:33 21.1
2018-Sep-25 14:20 135 2 gusting 5 21.1
2018-Sep-25 14:07 090 3 gusting 6 21.1
2018-Sep-25 13:52 045 2 gusting 5 21.1
2018-Sep-25 13:38 045 2 gusting 5 21.7
2018-Sep-25 13:25 045 2 gusting 6 21.7
2018-Sep-25 13:12 045 5 gusting 7 22.2
2018-Sep-25 13:09 090 4 gusting 5 22.2
2018-Sep-25 12:58 090 4 gusting 7 22.2
2018-Sep-25 12:43 045 3 gusting 8 22.2
2018-Sep-25 12:30 22.2
2018-Sep-25 12:17 045 4 gusting 10 22.8
2018-Sep-25 12:03 23.3
2018-Sep-25 11:49 135 4 gusting 6 23.3
2018-Sep-25 11:37 090 5 gusting 7 23.9
2018-Sep-25 11:23 045 4 gusting 7 24.4
2018-Sep-25 11:11 090 4 gusting 9 25.0
2018-Sep-25 10:56 090 3 gusting 6 25.6
2018-Sep-25 10:53 090 2 gusting 5 25.6
2018-Sep-25 10:43 090 0 gusting 2 25.0
2018-Sep-25 10:28 090 2 gusting 5 25.0
2018-Sep-25 10:14 090 1 gusting 3 25.6
2018-Sep-25 10:02 315 0 gusting 2 25.6
2018-Sep-25 09:49 225 0 gusting 2 26.1
2018-Sep-25 09:35 26.1
2018-Sep-25 09:34 26.1
2018-Sep-25 09:20 26.1
2018-Sep-25 09:07 26.7
2018-Sep-25 08:54 26.1
2018-Sep-25 08:46 270 2 gusting 5 25.6
2018-Sep-25 08:40 270 2 gusting 5 25.6
2018-Sep-25 08:26 270 3 gusting 5 26.1
2018-Sep-25 08:13 270 25.0
2018-Sep-25 07:56 270 0 gusting 3 24.4
2018-Sep-25 07:44 270 3 gusting 5 23.9
2018-Sep-25 07:31 270 0 gusting 2 23.3
2018-Sep-25 07:20 315 2 gusting 4 22.8
2018-Sep-25 07:16 270 2 gusting 5 22.8
2018-Sep-25 07:04 315 1 gusting 4 22.2
2018-Sep-25 06:50 270 2 gusting 5 22.2
2018-Sep-25 06:37 22.2
2018-Sep-25 06:27 225 21.7
2018-Sep-25 06:10 21.7
2018-Sep-25 05:58 270 21.7
2018-Sep-25 05:41 270 1 gusting 3 21.7
2018-Sep-25 05:33 315 0 gusting 2 21.7
2018-Sep-25 05:27 21.1
2018-Sep-25 05:12 21.1
2018-Sep-25 05:08 21.1
2018-Sep-25 04:59 20.6
2018-Sep-25 04:47 20.6
2018-Sep-25 04:41 21.1
2018-Sep-25 04:35 180 21.1
2018-Sep-25 04:22 21.1
2018-Sep-25 04:17 21.1
2018-Sep-25 04:07 21.1
2018-Sep-25 03:52 21.1
2018-Sep-25 03:39 21.7
2018-Sep-25 03:25 21.7
2018-Sep-25 03:24 21.7
2018-Sep-25 03:11 21.7
2018-Sep-25 02:59 21.1
2018-Sep-25 02:45 21.1
2018-Sep-25 02:32 21.1
2018-Sep-25 02:19 21.7
2018-Sep-25 02:05 225 1 gusting 2 22.2
2018-Sep-25 02:04 225 1 gusting 2 22.2
2018-Sep-25 01:51 270 21.7
2018-Sep-25 01:38 21.7
2018-Sep-25 01:25 21.7
2018-Sep-25 01:10 21.7
2018-Sep-25 01:09 21.7
2018-Sep-25 00:58 21.7
2018-Sep-25 00:45 22.2
2018-Sep-25 00:31 270 0 gusting 1 22.2
2018-Sep-25 00:18 22.2
2018-Sep-25 00:05 22.8
2018-Sep-24 23:50 270 22.2
2018-Sep-24 23:36 22.2
2018-Sep-24 23:22 22.2
2018-Sep-24 23:09 22.2
2018-Sep-24 22:56 22.2
2018-Sep-24 22:41 270 22.2
2018-Sep-24 22:28 270 22.2
2018-Sep-24 22:13 22.2
2018-Sep-24 22:00 270 22.8
2018-Sep-24 21:59 22.8
2018-Sep-24 21:46 22.8
2018-Sep-24 21:33 22.8
2018-Sep-24 21:20 22.8
2018-Sep-24 21:07 22.8
2018-Sep-24 20:54 270 22.8
2018-Sep-24 20:42 23.3
2018-Sep-24 20:26 270 0 gusting 2 23.3
2018-Sep-24 20:12 270 23.3
2018-Sep-24 19:58 270 23.3
2018-Sep-24 19:45 270 23.3
2018-Sep-24 19:43 270 23.3
2018-Sep-24 19:29 23.9
2018-Sep-24 19:20 270 23.9
2018-Sep-24 19:15 270 1 gusting 2 23.9
2018-Sep-24 19:01 270 1 gusting 2 23.9
2018-Sep-24 18:54 270 1 gusting 3 23.9
2018-Sep-24 18:48 225 0 gusting 2 23.9
2018-Sep-24 18:34 270 24.4
2018-Sep-24 18:30 225 0 gusting 2 25.0
2018-Sep-24 18:19 25.0
2018-Sep-24 18:05 090 0 gusting 2 25.0
2018-Sep-24 18:03 25.0
2018-Sep-24 17:51 25.0
2018-Sep-24 17:37 090 0 gusting 3 25.0
2018-Sep-24 17:24 25.6
2018-Sep-24 17:11 090 2 gusting 5 25.6
2018-Sep-24 17:06 135 2 gusting 5 25.6
2018-Sep-24 16:57 090 2 gusting 6 25.6
2018-Sep-24 16:43 090 2 gusting 5 26.1
2018-Sep-24 16:28 045 2 gusting 5 26.1
2018-Sep-24 16:16 090 6 gusting 9 26.7
2018-Sep-24 16:13 090 2 gusting 3 26.7
2018-Sep-24 16:02 090 3 gusting 7 26.7
2018-Sep-24 15:48 090 2 gusting 6 26.7
2018-Sep-24 15:35 090 3 gusting 6 26.7
2018-Sep-24 15:20 045 6 gusting 10 27.2
2018-Sep-24 15:19 045 6 gusting 10 27.2
2018-Sep-24 15:08 27.2
2018-Sep-24 14:53 090 2 gusting 3 27.2
2018-Sep-24 14:41 090 2 gusting 5 27.2
2018-Sep-24 14:27 045 5 gusting 10 27.2
2018-Sep-24 14:24 090 2 gusting 7 27.2
2018-Sep-24 14:12 045 2 gusting 4 27.2
2018-Sep-24 13:58 090 5 gusting 9 27.8
2018-Sep-24 13:44 27.8
2018-Sep-24 13:30 270 6 gusting 11 28.3
2018-Sep-24 13:28 090 4 gusting 8 28.3
2018-Sep-24 13:17 045 2 gusting 4 28.3
2018-Sep-24 13:05 045 2 gusting 4 28.3
2018-Sep-24 12:52 045 2 gusting 6 29.4
2018-Sep-24 12:38 090 2 gusting 5 30.6
2018-Sep-24 12:25 30.0
2018-Sep-24 12:12 045 2 gusting 7 29.4
2018-Sep-24 12:08 045 2 gusting 5 29.4
2018-Sep-24 11:59 090 5 gusting 8 30.0
2018-Sep-24 11:45 30.0
2018-Sep-24 11:42 30.0
2018-Sep-24 11:33 315 4 gusting 7 30.0
2018-Sep-24 11:21 135 2 gusting 4 29.4
2018-Sep-24 11:15 045 2 gusting 4 29.4
2018-Sep-24 11:09 090 1 gusting 4 30.0
2018-Sep-24 10:55 29.4
2018-Sep-24 10:48 30.0
2018-Sep-24 10:43 090 0 gusting 2 30.0
2018-Sep-24 10:30 090 0 gusting 2 29.4
2018-Sep-24 10:22 090 29.4
2018-Sep-24 10:17 29.4
2018-Sep-24 10:04 29.4
2018-Sep-24 09:56 090 1 gusting 2 29.4
2018-Sep-24 09:49 135 1 gusting 3 29.4
2018-Sep-24 09:35 045 0 gusting 2 29.4
2018-Sep-24 09:30 090 0 gusting 3 29.4
2018-Sep-24 09:21 090 28.9
2018-Sep-24 09:06 135 2 gusting 6 28.9
2018-Sep-24 09:03 090 28.9
2018-Sep-24 08:54 090 0 gusting 2 28.9
2018-Sep-24 08:40 090 0 gusting 2 29.4
2018-Sep-24 08:35 180 0 gusting 1 28.9
2018-Sep-24 08:26 28.9
2018-Sep-24 08:13 28.9
2018-Sep-24 08:10 28.3
2018-Sep-24 07:58 27.2
2018-Sep-24 07:46 26.7
2018-Sep-24 07:42 26.7
2018-Sep-24 07:31 25.6
2018-Sep-24 07:18 24.4
2018-Sep-24 07:04 180 0 gusting 2 25.0
2018-Sep-24 06:52 25.0
2018-Sep-24 06:49 180 25.0
2018-Sep-24 06:37 23.9
2018-Sep-24 06:23 22.8
2018-Sep-24 06:08 22.8
2018-Sep-24 05:54 135 0 gusting 1 22.8
2018-Sep-24 05:42 225 0 gusting 2 22.8
2018-Sep-24 05:29 225 23.3
2018-Sep-24 05:14 180 1 gusting 2 23.3
2018-Sep-24 05:01 180 2 gusting 4 23.3
2018-Sep-24 04:47 24.4
2018-Sep-24 04:34 135 23.9
2018-Sep-24 04:20 23.9
2018-Sep-24 04:06 270 2 gusting 5 23.3
2018-Sep-24 04:05 315 1 gusting 4 23.3
2018-Sep-24 03:54 180 1 gusting 2 24.4
2018-Sep-24 03:39 270 1 gusting 3 23.9
2018-Sep-24 03:26 045 0 gusting 2 23.9
2018-Sep-24 03:13 23.9
2018-Sep-24 02:58 270 0 gusting 1 23.9
2018-Sep-24 02:46 225 1 gusting 2 23.9
2018-Sep-24 02:44 270 1 gusting 2 23.9
2018-Sep-24 02:32 23.9
2018-Sep-24 02:18 180 3 gusting 5 25.0
2018-Sep-24 02:04 315 4 gusting 9 25.0
2018-Sep-24 01:53 270 2 gusting 5 25.0
2018-Sep-24 01:38 270 2 gusting 5 25.0
2018-Sep-24 01:28 270 6 gusting 10 25.0
2018-Sep-24 01:25 270 6 gusting 11 25.0
2018-Sep-24 01:12 180 3 gusting 6 24.4
2018-Sep-24 00:58 23.9
2018-Sep-24 00:44 23.9
2018-Sep-24 00:30 23.9
2018-Sep-24 00:15 270 23.3
2018-Sep-24 00:04 23.9
2018-Sep-23 23:47 23.9
2018-Sep-23 23:38 23.9
2018-Sep-23 23:32 23.9
2018-Sep-23 23:20 23.9
2018-Sep-23 23:11 24.4
2018-Sep-23 23:07 24.4